Cegled, Hungary
Current Conditions -  °F | °C
As of 5:45 AM on Saturday 25 Oct 2014 (Local Time) from LHKE Reporting Station
Broken Clouds Broken Clouds  
Wind Chill: 36°   Ceiling: 6000
Heat Index: 39°   Visibility: 6mi
Dew Point: 37°   Wind: 5mph
Humidity: 93%   Direction: 10°N
Pressure: 30.21"   Gusts: NA
Location:  47.18°N, 19.78°E
Report Text: LHKE 250345Z 01004KT 9999 SCT020 BKN060 04/03 Q1023 NOSIG RMK BLU
Loading
Personal Weather Stations






























Interactive Weather Map New forecast layout! Learn more

10-Day Weather Forecast

Advertisements
Track Severe Weather on mobile